Flight EZE41Y

  • Submitted By: Dave Hardy
  • Departure Airport: London Stansted (EGSS)
  • Arrival Airport: Manchester (EGCC)
  • Aircraft: JS41 (G-MAJA)
  • Flight Time: 00.58
  • Date Submitted: 02/06/2009
  • Status: Accepted
Flight Details
Gross Revenue:
(0 load / £ 0.00 per unit
£ 0.00
Fuel Cost:
(5.1 fuel used @ 0 / unit)
£ 0.00

Flight Details

  • VATAWARE Link: -

Additional Log Information:

View Log

[2009/02/06 08:42:00]
Flight IATA:EZE41Y
Pilot Number:EZE0001
Company ICAO:EZE
Aircraft Type:JS41
Aircraft Registration:JS41
Departing Airport: EGSS
Destination Airport: EGCC
Alternate Airport:EGGP
Online: VATSIM
Route:BUZAD T420 TNT
Flight Level:18000
08:42 Zero fuel Weight: 17980 Lbs, Fuel Weight: 5729 Lbs
08:42 VATSIM:EGSS 061850Z 34009KT 9000 -RASN FEW001 SCT003 BKN007 M00/M00 Q0991 RESN
08:42 VATSIM:EGCC 061850Z 23002KT CAVOK M00/M03 Q0993
08:43 Parking Brakes off
08:43 Com1 Freq=123.80
08:44 VR= 138 Knots
08:44 V2= 141 Knots
08:44 Take-off
08:44 Take off Weight: 23678 Lbs
08:44 Wind: 344 @ 009 Knots Heading: 039
08:44 POS N51 53 23 E000 14 31
08:44 N11 36 N12 21
08:44 Gear Up: 142 Knots
08:44 Flaps: at 143 Knots
08:45 Com1 Freq=122.80
08:46 Flaps: at 127 Knots
08:55 TOC
08:55 Fuel Weight: 5329 Lb
08:59 Wind:264@008 Knots Heading: 327 Ground Speed: 303 Knots Altitude 17329 ft
09:05 Com1 Freq=120.80
09:05 Com1 Freq=118.80
09:05 Com1 Freq=118.75
09:05 Com1 Freq=118.62
09:05 Com1 Freq=118.57
09:09 TOD
09:09 Fuel Weight: 4964 Lb
09:14 Wind:340@024 Knots Heading: 340 Ground Speed: 221 Knots Altitude 8480 ft
09:21 Flaps: at 217 Knots
09:22 Flaps: at 227 Knots
09:22 Gear Down: 227 Knots
09:22 Gear Up: 216 Knots
09:22 Flaps: at 215 Knots
09:23 Gear Down: 213 Knots
09:23 Flaps: at 212 Knots
09:24 Com1 Freq=118.60
09:24 Com1 Freq=118.62
09:25 Flaps: at 177 Knots
09:26 TouchDown:Rate -176 ft/min Speed: 128 Knots
09:26 VATSIM:EGCC 061950Z 27003KT CAVOK M01/M03 Q0994
09:26 Land
09:26 Wind:306@002 Knots
09:26 Heading: 230
09:26 Flight Duration: 00:42
09:26 Landing Weight: 22656 Lbs
09:26 POS N53 20 30 W002 17 24
09:41 Parking brakes on
09:41 Block to Block Duration: 00:58
09:41 Final Fuel: 4603 Lbls
09:41 Spent Fuel: 1126 Lbls
09:41 Flight Length: 162 NM
09:41 TOD Land Length: 61 NM

Route Map